createdAt,value
2022-10-26T00:01:24.246Z,7.70
2022-10-26T00:03:27.553Z,7.80
2022-10-26T00:05:34.324Z,7.80
2022-10-26T00:07:37.578Z,7.80
2022-10-26T00:09:40.803Z,7.80
2022-10-26T00:11:44.192Z,7.90
2022-10-26T00:13:48.766Z,8.00
2022-10-26T00:15:52.055Z,8.20
2022-10-26T00:17:55.512Z,8.30
2022-10-26T00:20:00.550Z,8.50
2022-10-26T00:22:05.461Z,8.60
2022-10-26T00:24:08.819Z,8.60
2022-10-26T00:26:12.503Z,8.60
2022-10-26T00:28:15.696Z,8.50
2022-10-26T00:30:18.976Z,8.50
2022-10-26T00:32:22.233Z,8.50
2022-10-26T00:34:25.451Z,8.40
2022-10-26T00:36:28.996Z,8.40
2022-10-26T00:38:33.703Z,8.30
2022-10-26T00:40:37.016Z,8.30
2022-10-26T00:42:40.353Z,8.30
2022-10-26T00:45:01.955Z,8.30
2022-10-26T00:47:06.604Z,8.30
2022-10-26T00:49:15.376Z,8.30
2022-10-26T00:51:25.638Z,8.30
2022-10-26T00:53:30.153Z,8.30
2022-10-26T00:55:38.729Z,8.20
2022-10-26T00:57:42.576Z,8.30
2022-10-26T00:59:47.546Z,8.30
2022-10-26T01:01:52.074Z,8.30
2022-10-26T01:03:55.470Z,8.20
2022-10-26T01:05:59.419Z,8.20
2022-10-26T01:08:03.987Z,8.20
2022-10-26T01:10:08.588Z,8.20
2022-10-26T01:12:13.312Z,8.20
2022-10-26T01:14:19.119Z,8.30
2022-10-26T01:16:51.625Z,8.40
2022-10-26T01:19:06.599Z,8.70
2022-10-26T01:21:43.946Z,9.10
2022-10-26T01:24:03.684Z,9.20
2022-10-26T01:26:27.601Z,9.20
2022-10-26T01:28:48.676Z,9.00
2022-10-26T01:30:54.445Z,8.90
2022-10-26T01:33:22.695Z,8.90
2022-10-26T01:35:31.606Z,9.00
2022-10-26T01:37:40.156Z,9.00
2022-10-26T01:39:49.383Z,8.90
2022-10-26T01:41:57.695Z,8.80
2022-10-26T01:44:04.384Z,8.80
2022-10-26T01:46:10.883Z,8.80
2022-10-26T01:48:17.857Z,8.80
2022-10-26T01:50:22.123Z,8.60
2022-10-26T01:52:25.571Z,8.60
2022-10-26T01:54:29.416Z,8.60
2022-10-26T01:56:36.487Z,8.60
2022-10-26T01:59:04.684Z,8.60
2022-10-26T02:01:21.405Z,8.50
2022-10-26T02:03:31.124Z,8.50
2022-10-26T02:06:01.920Z,8.50
2022-10-26T02:08:20.614Z,8.40
2022-10-26T02:10:34.592Z,8.40
2022-10-26T02:12:45.309Z,8.40
2022-10-26T02:14:51.820Z,8.50
2022-10-26T02:16:58.606Z,8.40
2022-10-26T02:19:06.855Z,8.40
2022-10-26T02:21:17.718Z,8.30
2022-10-26T02:23:22.900Z,8.30
2022-10-26T02:25:30.994Z,8.40
2022-10-26T02:27:39.718Z,8.40
2022-10-26T02:29:44.853Z,8.50
2022-10-26T02:31:50.813Z,8.80
2022-10-26T02:33:58.244Z,9.10
2022-10-26T02:36:04.508Z,9.20
2022-10-26T02:38:11.555Z,9.30
2022-10-26T02:40:18.815Z,9.50
2022-10-26T02:42:23.948Z,9.70
2022-10-26T02:44:30.335Z,9.80
2022-10-26T02:46:33.850Z,9.90
2022-10-26T02:50:52.169Z,9.70
2022-10-26T02:53:03.751Z,9.60
2022-10-26T02:55:12.968Z,9.80
2022-10-26T02:57:20.013Z,9.70
2022-10-26T02:59:26.205Z,9.70
2022-10-26T03:01:30.618Z,9.90
2022-10-26T03:03:34.750Z,9.70
2022-10-26T03:05:42.842Z,9.70
2022-10-26T03:07:47.449Z,9.60
2022-10-26T03:09:50.730Z,9.60
2022-10-26T03:13:57.657Z,9.40
2022-10-26T03:16:00.873Z,9.30
2022-10-26T03:20:10.054Z,9.30
2022-10-26T03:22:13.240Z,9.30
2022-10-26T03:24:17.777Z,9.30
2022-10-26T03:26:20.907Z,9.50
2022-10-26T03:28:24.149Z,9.40
2022-10-26T03:30:28.312Z,9.50
2022-10-26T03:32:31.467Z,9.50
2022-10-26T03:34:34.786Z,9.50
2022-10-26T03:36:37.924Z,9.50
2022-10-26T03:38:41.170Z,9.50
2022-10-26T03:40:48.602Z,9.50
2022-10-26T03:44:55.875Z,9.40
2022-10-26T03:46:59.129Z,9.30
2022-10-26T03:49:02.298Z,9.00
2022-10-26T03:51:05.765Z,8.90
2022-10-26T03:53:09.306Z,8.80
2022-10-26T03:55:12.599Z,8.70
2022-10-26T03:57:17.201Z,8.80
2022-10-26T03:59:20.407Z,8.80
2022-10-26T04:01:24.064Z,8.80
2022-10-26T04:03:27.702Z,8.80
2022-10-26T04:05:31.243Z,8.90
2022-10-26T04:07:35.360Z,9.00
2022-10-26T04:09:38.574Z,9.00
2022-10-26T04:11:41.845Z,9.10
2022-10-26T04:13:46.546Z,9.30
2022-10-26T04:15:49.850Z,9.30
2022-10-26T04:17:58.041Z,9.20
2022-10-26T04:20:01.272Z,9.10
2022-10-26T04:22:04.680Z,9.20
2022-10-26T04:24:08.340Z,9.30
2022-10-26T04:26:11.572Z,9.60
2022-10-26T04:28:15.740Z,9.60
2022-10-26T04:30:20.528Z,9.80
2022-10-26T04:32:23.778Z,9.90
2022-10-26T04:34:27.029Z,10.00
2022-10-26T04:36:31.096Z,10.00
2022-10-26T04:38:34.338Z,10.10
2022-10-26T04:40:37.815Z,10.10
2022-10-26T04:42:42.746Z,10.00
2022-10-26T04:44:45.962Z,10.00
2022-10-26T04:46:50.596Z,10.00
2022-10-26T04:48:53.742Z,10.10
2022-10-26T04:51:00.100Z,9.80
2022-10-26T04:53:03.695Z,9.90
2022-10-26T04:55:07.788Z,9.80
2022-10-26T04:57:11.648Z,10.10
2022-10-26T04:59:14.795Z,10.20
2022-10-26T05:01:18.163Z,10.20
2022-10-26T05:03:22.936Z,10.20
2022-10-26T05:05:26.207Z,10.10
2022-10-26T05:07:29.389Z,10.10
2022-10-26T05:09:32.575Z,10.00
2022-10-26T05:11:35.795Z,10.20
2022-10-26T05:13:39.077Z,10.40
2022-10-26T05:15:42.241Z,10.40
2022-10-26T05:17:45.509Z,10.50
2022-10-26T05:19:55.376Z,10.70
2022-10-26T05:21:58.698Z,10.60
2022-10-26T05:24:01.938Z,10.70
2022-10-26T05:26:05.776Z,10.70
2022-10-26T05:28:13.448Z,10.70
2022-10-26T05:30:16.870Z,10.70
2022-10-26T05:32:20.312Z,10.70
2022-10-26T05:34:23.498Z,10.80
2022-10-26T05:36:28.145Z,10.80
2022-10-26T05:38:31.358Z,10.80
2022-10-26T05:40:34.902Z,10.80
2022-10-26T05:42:38.092Z,10.80
2022-10-26T05:44:41.482Z,10.90
2022-10-26T05:46:44.952Z,10.80
2022-10-26T05:48:48.166Z,10.80
2022-10-26T05:50:51.481Z,10.80
2022-10-26T05:52:56.102Z,10.90
2022-10-26T05:54:59.292Z,11.00
2022-10-26T05:57:03.191Z,10.90
2022-10-26T05:59:11.962Z,11.00
2022-10-26T06:01:27.698Z,10.90
2022-10-26T06:03:42.553Z,11.00
2022-10-26T06:05:55.470Z,11.00
2022-10-26T06:08:00.452Z,11.00
2022-10-26T06:10:04.367Z,11.00
2022-10-26T06:12:08.756Z,11.00
2022-10-26T06:14:12.725Z,11.00
2022-10-26T06:16:31.803Z,11.00
2022-10-26T06:18:48.709Z,11.10
2022-10-26T06:21:06.217Z,11.10
2022-10-26T06:23:23.948Z,11.20
2022-10-26T06:25:35.220Z,11.30
2022-10-26T06:27:46.574Z,11.30
2022-10-26T06:29:57.443Z,11.40
2022-10-26T06:32:00.832Z,11.50
2022-10-26T06:34:04.944Z,11.60
2022-10-26T06:36:21.724Z,11.60
2022-10-26T06:38:30.604Z,11.60
2022-10-26T06:40:36.572Z,11.70
2022-10-26T06:42:40.120Z,11.70
2022-10-26T06:44:44.224Z,11.70
2022-10-26T06:46:52.269Z,11.70
2022-10-26T06:49:02.131Z,11.70
2022-10-26T06:51:06.107Z,11.70
2022-10-26T06:53:21.655Z,11.60
2022-10-26T06:55:27.537Z,11.60
2022-10-26T06:57:35.710Z,11.60
2022-10-26T06:59:43.848Z,11.70
2022-10-26T07:01:47.326Z,11.70
2022-10-26T07:03:50.704Z,11.70
2022-10-26T07:05:54.026Z,11.70
2022-10-26T07:07:57.479Z,11.80
2022-10-26T07:10:00.701Z,11.90
2022-10-26T07:12:05.996Z,12.00
2022-10-26T07:14:09.535Z,12.10
2022-10-26T07:16:12.762Z,12.20
2022-10-26T07:18:16.080Z,12.30
2022-10-26T07:20:21.349Z,12.40
2022-10-26T07:22:25.335Z,12.40
2022-10-26T07:24:28.825Z,12.50
2022-10-26T07:26:32.242Z,12.60
2022-10-26T07:28:37.632Z,12.70
2022-10-26T07:30:41.947Z,12.90
2022-10-26T07:32:45.719Z,13.00
2022-10-26T07:34:49.061Z,13.10
2022-10-26T07:36:53.070Z,13.20
2022-10-26T07:38:56.307Z,13.20
2022-10-26T07:40:59.489Z,13.10
2022-10-26T07:43:02.734Z,13.30
2022-10-26T07:45:09.179Z,13.50
2022-10-26T07:47:12.436Z,13.50
2022-10-26T07:49:19.177Z,13.50
2022-10-26T07:51:23.749Z,13.60
2022-10-26T07:53:28.069Z,13.60
2022-10-26T07:55:31.421Z,13.80
2022-10-26T07:57:35.827Z,14.00
2022-10-26T07:59:39.167Z,14.10
2022-10-26T08:01:43.914Z,14.10
2022-10-26T08:03:47.233Z,14.30
2022-10-26T08:05:55.921Z,14.30
2022-10-26T08:07:59.335Z,14.40
2022-10-26T08:10:04.680Z,14.40
2022-10-26T08:12:08.152Z,14.20
2022-10-26T08:14:12.609Z,14.20
2022-10-26T08:16:19.568Z,14.30
2022-10-26T08:18:24.186Z,14.40
2022-10-26T08:20:27.586Z,14.40
2022-10-26T08:22:31.257Z,14.50
2022-10-26T08:24:34.524Z,14.50
2022-10-26T08:26:38.414Z,14.50
2022-10-26T08:28:42.626Z,14.60
2022-10-26T08:30:45.979Z,14.80
2022-10-26T08:32:49.455Z,14.80
2022-10-26T08:34:54.230Z,15.00
2022-10-26T08:39:01.223Z,15.50
2022-10-26T08:41:10.627Z,15.50
2022-10-26T08:43:22.409Z,15.60
2022-10-26T08:45:34.341Z,15.80
2022-10-26T08:49:56.169Z,16.30
2022-10-26T08:52:02.597Z,16.50
2022-10-26T08:56:19.043Z,17.00
2022-10-26T09:38:49.028Z,18.20
2022-10-26T09:45:13.128Z,18.40
2022-10-26T09:47:25.437Z,18.50
2022-10-26T09:53:43.109Z,18.10
2022-10-26T09:55:50.217Z,18.10
2022-10-26T09:59:59.891Z,19.20
2022-10-26T10:04:21.295Z,20.10
2022-10-26T10:06:25.972Z,20.20
2022-10-26T10:08:29.263Z,23.70
2022-10-26T11:59:39.055Z,23.20
2022-10-26T14:18:26.337Z,18.20
2022-10-26T14:54:22.993Z,17.10
2022-10-26T15:00:36.345Z,16.90
2022-10-26T15:08:57.147Z,16.20
2022-10-26T15:11:11.477Z,16.00
2022-10-26T15:13:28.058Z,15.80
2022-10-26T15:23:54.208Z,15.20
2022-10-26T15:28:11.573Z,15.20
2022-10-26T15:32:31.695Z,15.10
2022-10-26T15:38:42.325Z,15.00
2022-10-26T15:40:47.164Z,14.90
2022-10-26T15:42:53.111Z,14.80
2022-10-26T15:47:06.389Z,14.60
2022-10-26T15:49:17.990Z,14.50
2022-10-26T15:51:21.212Z,14.30
2022-10-26T15:53:27.611Z,14.20
2022-10-26T15:55:32.052Z,14.10
2022-10-26T15:57:36.919Z,14.00
2022-10-26T16:01:43.694Z,13.70
2022-10-26T16:03:47.454Z,13.60
2022-10-26T16:05:53.391Z,13.60
2022-10-26T16:08:00.296Z,13.50
2022-10-26T16:10:03.584Z,13.40
2022-10-26T16:12:07.422Z,13.40
2022-10-26T16:14:12.928Z,13.30
2022-10-26T16:16:18.382Z,13.20
2022-10-26T16:18:21.591Z,13.00
2022-10-26T16:20:27.665Z,12.90
2022-10-26T16:22:32.706Z,12.80
2022-10-26T16:24:38.118Z,12.70
2022-10-26T16:26:41.410Z,12.60
2022-10-26T16:28:45.120Z,12.60
2022-10-26T16:30:49.857Z,12.50
2022-10-26T16:32:53.874Z,12.40
2022-10-26T16:34:57.133Z,12.30
2022-10-26T16:37:00.583Z,12.20
2022-10-26T16:39:03.842Z,12.20
2022-10-26T16:41:08.697Z,12.10
2022-10-26T16:43:12.080Z,12.00
2022-10-26T16:45:16.295Z,11.90
2022-10-26T16:49:29.182Z,11.80
2022-10-26T16:51:32.328Z,11.90
2022-10-26T16:53:35.853Z,11.80
2022-10-26T16:55:39.298Z,11.70
2022-10-26T16:57:42.597Z,11.60
2022-10-26T16:59:46.124Z,11.70
2022-10-26T17:01:49.525Z,11.70
2022-10-26T17:03:54.964Z,11.60
2022-10-26T17:05:59.292Z,11.60
2022-10-26T17:08:02.668Z,11.50
2022-10-26T17:10:06.780Z,11.40
2022-10-26T17:12:11.140Z,11.30
2022-10-26T17:14:14.472Z,11.20
2022-10-26T17:16:19.951Z,11.20
2022-10-26T17:18:23.322Z,11.10
2022-10-26T17:20:28.146Z,11.10
2022-10-26T17:22:31.270Z,11.00
2022-10-26T17:24:34.461Z,11.00
2022-10-26T17:26:37.709Z,10.90
2022-10-26T17:28:40.994Z,10.90
2022-10-26T17:30:44.842Z,10.80
2022-10-26T17:32:48.304Z,10.90
2022-10-26T17:34:51.622Z,10.80
2022-10-26T17:36:56.363Z,10.70
2022-10-26T17:39:00.828Z,10.70
2022-10-26T17:41:05.281Z,10.70
2022-10-26T17:43:08.473Z,10.60
2022-10-26T17:45:12.233Z,10.50
2022-10-26T17:47:15.400Z,10.50
2022-10-26T17:49:20.514Z,10.50
2022-10-26T17:51:28.090Z,10.50
2022-10-26T17:53:33.026Z,10.50
2022-10-26T17:55:36.704Z,10.50
2022-10-26T17:57:39.853Z,10.60
2022-10-26T17:59:43.119Z,10.60
2022-10-26T18:01:46.573Z,10.60
2022-10-26T18:03:49.863Z,10.70
2022-10-26T18:05:53.360Z,10.80
2022-10-26T18:07:56.622Z,10.90
2022-10-26T18:10:19.627Z,10.90
2022-10-26T18:12:24.678Z,11.00
2022-10-26T18:14:27.847Z,11.00
2022-10-26T18:16:31.284Z,11.10
2022-10-26T18:18:34.979Z,11.20
2022-10-26T18:20:38.199Z,11.20
2022-10-26T18:22:41.327Z,11.30
2022-10-26T18:24:44.565Z,11.30
2022-10-26T18:26:49.265Z,11.50
2022-10-26T18:28:52.523Z,11.50
2022-10-26T18:31:00.302Z,11.60
2022-10-26T18:33:03.458Z,11.60
2022-10-26T18:35:07.262Z,11.60
2022-10-26T18:37:10.424Z,11.60
2022-10-26T18:39:13.741Z,11.60
2022-10-26T18:41:20.285Z,11.60
2022-10-26T18:43:25.156Z,11.60
2022-10-26T18:45:28.400Z,11.60
2022-10-26T18:47:32.684Z,11.60
2022-10-26T18:49:35.843Z,11.60
2022-10-26T18:53:44.341Z,11.70
2022-10-26T18:55:47.642Z,11.70
2022-10-26T18:57:51.113Z,11.70
2022-10-26T18:59:56.003Z,11.80
2022-10-26T19:01:59.496Z,11.70
2022-10-26T19:04:04.578Z,11.80
2022-10-26T19:06:12.267Z,11.80
2022-10-26T19:08:15.556Z,11.90
2022-10-26T19:10:18.868Z,11.80
2022-10-26T19:12:22.238Z,11.90
2022-10-26T19:14:27.216Z,11.90
2022-10-26T19:16:45.394Z,11.90
2022-10-26T19:18:50.756Z,11.90
2022-10-26T19:20:59.203Z,11.90
2022-10-26T19:23:02.442Z,12.00
2022-10-26T19:27:09.907Z,11.80
2022-10-26T19:31:21.499Z,11.80
2022-10-26T19:35:32.577Z,11.80
2022-10-26T19:37:36.020Z,11.80
2022-10-26T19:39:39.454Z,11.90
2022-10-26T19:41:42.910Z,11.80
2022-10-26T19:43:46.577Z,11.90
2022-10-26T19:47:53.654Z,11.80
2022-10-26T19:49:59.671Z,11.80
2022-10-26T19:52:03.258Z,11.70
2022-10-26T19:54:07.539Z,11.60
2022-10-26T19:56:13.483Z,11.70
2022-10-26T20:00:20.973Z,11.50
2022-10-26T20:02:24.263Z,11.40
2022-10-26T20:06:32.997Z,11.20
2022-10-26T20:08:36.788Z,11.30
2022-10-26T20:12:45.490Z,11.40
2022-10-26T20:16:54.402Z,11.30
2022-10-26T20:18:57.496Z,11.20
2022-10-26T20:21:00.708Z,11.20
2022-10-26T20:23:06.213Z,11.10
2022-10-26T20:25:10.217Z,11.10
2022-10-26T20:27:13.503Z,11.10
2022-10-26T20:29:16.997Z,11.00
2022-10-26T20:31:20.498Z,11.00
2022-10-26T20:33:23.606Z,11.00
2022-10-26T20:35:27.217Z,11.00
2022-10-26T20:37:31.254Z,11.00
2022-10-26T20:39:36.786Z,11.00
2022-10-26T20:41:43.295Z,11.00
2022-10-26T20:43:47.097Z,10.90
2022-10-26T20:45:51.108Z,11.00
2022-10-26T20:47:55.547Z,10.80
2022-10-26T20:49:59.527Z,10.80
2022-10-26T20:52:20.662Z,10.90
2022-10-26T20:54:29.965Z,10.80
2022-10-26T20:56:35.526Z,10.70
2022-10-26T20:58:42.900Z,10.70
2022-10-26T21:00:54.720Z,10.70
2022-10-26T21:02:58.079Z,10.70
2022-10-26T21:05:01.673Z,10.60
2022-10-26T21:07:05.066Z,10.70
2022-10-26T21:09:09.283Z,10.70
2022-10-26T21:11:12.670Z,10.60
2022-10-26T21:13:17.596Z,10.50
2022-10-26T21:15:20.847Z,10.50
2022-10-26T21:17:24.479Z,10.40
2022-10-26T21:19:27.667Z,10.40
2022-10-26T21:21:30.945Z,10.40
2022-10-26T21:23:36.525Z,10.50
2022-10-26T21:25:39.860Z,10.50
2022-10-26T21:27:43.096Z,10.60
2022-10-26T21:29:47.619Z,10.50
2022-10-26T21:31:52.050Z,10.50
2022-10-26T21:33:55.413Z,10.60
2022-10-26T21:35:58.993Z,10.50
2022-10-26T21:38:02.179Z,10.50
2022-10-26T21:40:06.095Z,10.50
2022-10-26T21:42:09.681Z,10.60
2022-10-26T21:44:23.518Z,10.60
2022-10-26T21:46:38.274Z,10.60
2022-10-26T21:48:42.143Z,10.60
2022-10-26T21:50:45.344Z,10.50
2022-10-26T21:52:48.720Z,10.50
2022-10-26T21:54:52.173Z,10.40
2022-10-26T21:56:55.973Z,10.40
2022-10-26T21:59:00.985Z,10.40
2022-10-26T22:01:08.235Z,10.30
2022-10-26T22:03:13.375Z,10.10
2022-10-26T22:05:16.620Z,10.00
2022-10-26T22:07:20.103Z,10.00
2022-10-26T22:09:23.497Z,10.00
2022-10-26T22:11:26.938Z,10.10
2022-10-26T22:13:30.462Z,10.00
2022-10-26T22:15:33.775Z,9.90
2022-10-26T22:17:39.318Z,9.90
2022-10-26T22:21:47.655Z,9.70
2022-10-26T22:23:51.031Z,9.70
2022-10-26T22:25:54.539Z,9.70
2022-10-26T22:27:57.818Z,9.60
2022-10-26T22:30:01.111Z,9.50
2022-10-26T22:32:04.684Z,9.50
2022-10-26T22:34:09.832Z,9.40
2022-10-26T22:36:16.145Z,9.50
2022-10-26T22:38:19.432Z,9.40
2022-10-26T22:40:22.600Z,9.30
2022-10-26T22:42:25.943Z,9.50
2022-10-26T22:44:29.363Z,9.40
2022-10-26T22:46:32.724Z,9.50
2022-10-26T22:48:37.039Z,9.50
2022-10-26T22:50:40.573Z,9.40
2022-10-26T22:52:45.307Z,9.30
2022-10-26T22:54:48.572Z,9.30
2022-10-26T22:56:51.862Z,9.20
2022-10-26T22:58:55.056Z,9.20
2022-10-26T23:01:03.971Z,9.20
2022-10-26T23:03:07.978Z,9.10
2022-10-26T23:05:11.347Z,9.10
2022-10-26T23:07:14.581Z,9.10
2022-10-26T23:09:19.565Z,9.10
2022-10-26T23:11:24.493Z,9.10
2022-10-26T23:13:28.450Z,9.00
2022-10-26T23:15:31.732Z,9.00
2022-10-26T23:17:35.343Z,9.00
2022-10-26T23:19:38.571Z,8.90
2022-10-26T23:21:41.759Z,8.90
2022-10-26T23:23:45.272Z,8.90
2022-10-26T23:25:49.930Z,8.80
2022-10-26T23:27:53.086Z,8.90
2022-10-26T23:29:56.292Z,8.90
2022-10-26T23:31:59.573Z,8.90
2022-10-26T23:34:02.787Z,8.90
2022-10-26T23:36:06.801Z,8.90
2022-10-26T23:38:10.077Z,8.90
2022-10-26T23:40:13.780Z,8.90
2022-10-26T23:42:18.504Z,8.90
2022-10-26T23:44:21.719Z,8.90
2022-10-26T23:46:24.856Z,8.90
2022-10-26T23:48:28.267Z,8.90
2022-10-26T23:50:31.485Z,8.90
2022-10-26T23:52:34.780Z,8.80
2022-10-26T23:54:38.150Z,8.80
2022-10-26T23:56:41.387Z,8.70
2022-10-26T23:58:46.027Z,8.70
